Latest Weather Observations for Lake Grace

IDW60801

Issued at 8:33 pm WST Wednesday 26 September 2018 (issued every 10 minutes, with the page automatically refreshed every 10 minutes)

About weather observations | Map of weather stations | Latest weather observations for WA | Other Formats
Station Details ID: 010911 Name: LAKE GRACE Lat: -33.10 Lon: 118.46 Height: 286.0 m
Data from the previous 72 hours. | See also: Recent months at Lake Grace
Date/Time
WST
Temp
°C
App
Temp
°C
Dew
Point
°C
Rel
Hum
%
Delta-T
°C
Wind Press
QNH
hPa
Press
MSL
hPa
Rain since
9am
mm
Dir  Spd
km/h
Gust
km/h
Spd
kts
Gust
kts
26/08:30pm 12.4 8.9 5.6 63 3.2 SSE 13 19 7 10 1023.5 1023.5 0.0
26/08:00pm 13.2 10.3 4.6 56 4.0 S 9 13 5 7 1023.1 1023.1 0.0
26/07:30pm 14.2 11.7 4.5 52 4.6 S 7 9 4 5 1022.8 1022.8 0.0
26/07:00pm 15.3 12.3 4.1 47 5.2 SSW 9 13 5 7 1022.3 1022.2 0.0
26/06:30pm 16.2 13.2 4.3 45 5.6 SSW 9 13 5 7 1021.9 1021.8 0.0
26/06:00pm 17.1 13.8 4.4 43 6.1 SW 11 17 6 9 1021.4 1021.3 0.0
26/05:30pm 18.4 14.7 4.2 39 6.8 SW 13 20 7 11 1021.2 1021.1 0.0
26/05:00pm 19.1 15.7 4.1 37 7.2 SSW 11 17 6 9 1021.0 1020.9 0.0
26/04:30pm 19.1 15.1 4.8 39 7.0 SSW 15 24 8 13 1020.9 1020.8 0.0
26/04:00pm 19.2 15.1 4.6 38 7.1 SW 15 22 8 12 1020.7 1020.6 0.0
26/03:30pm 19.2 15.1 4.2 37 7.3 SSW 15 20 8 11 1020.4 1020.4 0.0
26/03:00pm 18.6 15.1 5.5 42 6.5 SW 13 24 7 13 1020.6 1020.5 0.0
26/02:30pm 19.0 15.1 5.5 41 6.7 SSW 15 28 8 15 1020.7 1020.6 0.0
26/02:00pm 19.1 15.9 5.2 40 6.8 SW 11 20 6 11 1020.7 1020.6 0.0
26/01:30pm 18.7 15.7 5.9 43 6.4 SW 11 22 6 12 1020.9 1020.8 0.0
26/01:00pm 17.9 15.3 6.1 46 5.9 SW 9 20 5 11 1021.3 1021.2 0.0
26/12:30pm 17.5 13.8 6.4 48 5.6 WSW 15 20 8 11 1021.6 1021.5 0.0
26/12:00pm 17.5 15.5 7.0 50 5.3 WNW 7 13 4 7 1022.0 1021.9 0.0
26/11:30am 17.3 14.9 6.8 50 5.3 W 9 17 5 9 1022.4 1022.3 0.0
26/11:00am 16.9 14.6 7.3 53 4.8 SW 9 15 5 8 1022.6 1022.5 0.0
26/10:30am 15.7 13.2 6.7 55 4.5 SW 9 15 5 8 1022.7 1022.7 0.0
26/10:00am 15.4 13.5 7.7 60 3.9 WNW 7 13 4 7 1022.8 1022.8 0.0
26/09:30am 15.3 14.3 8.8 65 3.4 WSW 4 7 2 4 1022.9 1022.9 0.0
26/09:00am 13.9 12.4 8.5 70 2.7 ENE 6 9 3 5 1022.9 1022.9 0.0
26/08:30am 13.3 11.8 8.6 73 2.4 SSW 6 9 3 5 1022.8 1022.8 0.0
26/08:00am 13.1 11.7 8.8 75 2.2 SW 6 9 3 5 1022.7 1022.7 0.0
26/07:30am 13.7 12.7 10.3 80 1.8 ESE 6 7 3 4 1022.4 1022.3 0.0
26/07:00am 11.8 10.3 9.0 83 1.4 SE 7 9 4 5 1022.2 1022.1 0.0
26/06:30am 11.8 10.2 8.8 82 1.5 SSE 7 11 4 6 1022.1 1022.0 0.0
26/06:00am 11.5 9.8 8.4 81 1.5 SSE 7 9 4 5 1022.1 1022.0 0.0
26/05:30am 11.6 10.1 8.5 81 1.6 SSE 6 7 3 4 1021.8 1021.7 0.0
26/05:00am 11.9 10.4 8.6 80 1.7 ESE 6 9 3 5 1021.5 1021.4 0.0
26/04:30am 11.9 10.5 8.7 81 1.6 SE 6 9 3 5 1021.6 1021.5 0.0
26/04:00am 11.9 10.5 8.9 82 1.5 SE 6 9 3 5 1021.5 1021.4 0.0
26/03:30am 11.8 10.3 9.0 83 1.4 SSE 7 9 4 5 1021.7 1021.6 0.0
26/03:00am 11.5 10.0 9.1 85 1.2 SE 7 11 4 6 1021.6 1021.5 0.0
26/02:30am 10.9 8.9 8.8 87 1.1 E 9 11 5 6 1021.7 1021.6 0.0
26/02:00am 10.7 9.3 8.8 88 0.9 S 6 9 3 5 1022.0 1021.9 0.0
26/01:30am 10.2 8.7 8.3 88 0.9 SSW 6 7 3 4 1022.2 1022.1 0.0
26/01:00am 10.2 9.4 8.3 88 0.9 SSE 2 7 1 4 1022.1 1022.0 0.0
26/12:30am 10.6 8.6 8.5 87 1.0 SE 9 13 5 7 1022.1 1022.0 0.0
26/12:00am 11.0 8.5 8.4 84 1.3 ESE 11 15 6 8 1022.1 1022.0 0.0
 
Date/Time
WST
Temp
°C
App
Temp
°C
Dew
Point
°C
Rel
Hum
%
Delta-T
°C
Wind Press
QNH
hPa
Press
MSL
hPa
Rain since
9am
mm
Dir  Spd
km/h
Gust
km/h
Spd
kts
Gust
kts
25/11:30pm 11.0 8.8 7.7 80 1.6 ESE 9 15 5 8 1022.1 1022.0 0.0
25/11:00pm 11.5 8.4 7.4 76 2.0 ESE 13 20 7 11 1022.2 1022.1 0.0
25/10:30pm 12.0 9.6 7.1 72 2.4 SE 9 13 5 7 1022.2 1022.1 0.0
25/10:00pm 12.1 9.6 4.8 61 3.4 SE 7 15 4 8 1022.3 1022.2 0.0
25/09:30pm 11.6 10.3 4.1 60 3.4 CALM 0 0 0 0 1022.3 1022.2 0.0
25/09:00pm 13.2 12.0 4.6 56 4.0 CALM 0 0 0 0 1022.3 1022.2 0.0
25/08:30pm 13.7 11.8 4.8 55 4.2 SE 4 7 2 4 1022.2 1022.1 0.0
25/08:00pm 14.4 12.1 4.7 52 4.6 SE 6 7 3 4 1021.9 1021.8 0.0
25/07:30pm 15.4 13.1 4.8 49 5.1 SSE 6 7 3 4 1021.5 1021.4 0.0
25/07:00pm 16.8 14.3 4.8 45 5.8 S 7 13 4 7 1021.2 1021.1 0.0
25/06:30pm 17.8 14.9 4.7 42 6.3 SSW 9 17 5 9 1020.7 1020.6 0.0
25/06:00pm 18.8 15.1 4.6 39 6.9 SW 13 24 7 13 1020.3 1020.3 0.0
25/05:30pm 20.1 16.4 4.2 35 7.8 WSW 13 19 7 10 1020.0 1020.0 0.0
25/05:00pm 20.5 16.0 4.1 34 8.0 WSW 17 24 9 13 1019.8 1019.8 0.0
25/04:30pm 21.0 16.5 4.1 33 8.3 WSW 17 30 9 16 1019.6 1019.5 0.0
25/04:00pm 21.2 17.0 3.9 32 8.4 WSW 15 26 8 14 1019.3 1019.2 0.0
25/03:30pm 21.1 16.1 3.8 32 8.4 SW 19 33 10 18 1019.1 1019.0 0.0
25/03:00pm 21.2 16.3 4.3 33 8.3 W 19 30 10 16 1019.1 1019.0 0.0
25/02:30pm 21.1 16.4 5.1 35 8.0 W 19 32 10 17 1019.2 1019.1 0.0
25/02:00pm 21.2 16.2 4.7 34 8.2 WSW 20 30 11 16 1019.4 1019.3 0.0
25/01:30pm 21.4 16.5 5.3 35 8.1 W 20 33 11 18 1019.6 1019.5 0.0
25/01:00pm 20.7 14.8 5.9 38 7.5 W 26 37 14 20 1019.9 1019.9 0.0
25/12:30pm 21.6 17.4 7.4 40 7.4 W 19 30 10 16 1020.2 1020.2 0.0
25/12:00pm 20.4 15.6 7.4 43 6.7 WSW 22 33 12 18 1020.4 1020.4 0.0
25/11:30am 19.2 15.2 8.2 49 5.8 W 19 33 10 18 1020.8 1020.7 0.0
25/11:00am 19.0 14.9 8.6 51 5.5 WSW 20 32 11 17 1021.1 1021.0 0.0
25/10:30am 18.2 14.8 9.3 56 4.7 WSW 17 30 9 16 1021.3 1021.2 0.0
25/10:00am 17.2 14.1 10.3 64 3.7 WSW 17 28 9 15 1021.5 1021.4 0.0
25/09:30am 16.4 13.6 10.0 66 3.4 WSW 15 28 8 15 1021.6 1021.5 0.0
25/09:00am 14.8 11.6 10.0 73 2.5 SW 17 28 9 15 1021.7 1021.6 0.0
25/08:30am 14.5 12.0 9.7 73 2.5 SW 13 20 7 11 1021.4 1021.3 0.0
25/08:00am 13.1 10.5 9.2 77 2.0 SW 13 20 7 11 1021.2 1021.1 0.0
25/07:30am 12.2 10.1 9.8 85 1.2 WSW 11 15 6 8 1020.9 1020.8 0.0
25/07:00am 11.2 9.1 9.6 90 0.8 SW 11 15 6 8 1020.9 1020.8 0.0
25/06:30am 10.4 8.5 9.2 92 0.6 W 9 13 5 7 1020.3 1020.3 0.0
25/06:00am 10.5 7.8 9.1 91 0.7 WSW 13 22 7 12 1020.3 1020.3 0.0
25/05:30am 11.7 9.6 9.9 89 0.9 SW 11 17 6 9 1019.9 1019.9 0.0
25/05:00am 12.1 10.1 10.2 88 1.0 SW 11 19 6 10 1019.7 1019.7 0.0
25/04:30am 12.4 10.9 10.6 89 0.9 SW 9 13 5 7 1019.6 1019.5 0.0
25/04:00am 12.5 10.7 10.9 90 0.8 WSW 11 17 6 9 1019.5 1019.4 0.0
25/03:30am 12.8 11.6 11.5 92 0.7 SW 9 13 5 7 1019.3 1019.2 0.0
25/03:00am 12.3 11.4 11.4 94 0.5 SSW 7 13 4 7 1019.1 1019.0 0.0
25/02:30am 11.9 11.1 11.0 94 0.5 SSE 6 9 3 5 1019.0 1018.9 0.0
25/02:00am 11.7 10.8 10.6 93 0.6 SSE 6 7 3 4 1019.2 1019.1 0.0
25/01:30am 12.0 10.9 10.6 91 0.7 SSE 7 9 4 5 1019.4 1019.3 0.0
25/01:00am 12.4 10.5 10.6 89 0.9 SSE 11 15 6 8 1019.6 1019.5 0.0
25/12:30am 13.0 11.1 10.5 85 1.3 SSE 11 17 6 9 1019.8 1019.8 0.0
25/12:00am 13.8 11.9 10.6 81 1.7 SW 11 17 6 9 1019.7 1019.7 0.0
 
Date/Time
WST
Temp
°C
App
Temp
°C
Dew
Point
°C
Rel
Hum
%
Delta-T
°C
Wind Press
QNH
hPa
Press
MSL
hPa
Rain since
9am
mm
Dir  Spd
km/h
Gust
km/h
Spd
kts
Gust
kts
24/11:30pm 14.6 12.8 10.8 78 2.0 WSW 11 15 6 8 1019.6 1019.5 0.0
24/11:00pm 15.3 13.7 10.3 72 2.7 SW 9 13 5 7 1019.7 1019.7 0.0
24/10:30pm 15.8 14.2 10.1 69 3.0 SW 9 15 5 8 1019.7 1019.7 0.0
24/10:00pm 16.1 14.4 9.8 66 3.3 WSW 9 15 5 8 1019.7 1019.7 0.0
24/09:30pm 16.5 15.0 9.2 62 3.8 SW 7 11 4 6 1019.7 1019.7 0.0
24/09:00pm 17.1 15.6 9.0 59 4.2 WSW 7 9 4 5 1019.5 1019.4 0.0
24/08:30pm 18.0 16.1 9.1 56 4.7 WSW 9 13 5 7 1019.3 1019.2 0.0
24/08:00pm 18.9 16.5 8.8 52 5.3 WSW 11 17 6 9 1019.1 1019.0 0.0
24/07:30pm 19.8 17.4 8.5 48 6.0 WSW 11 15 6 8 1018.7 1018.6 0.0
24/07:00pm 20.4 18.2 7.7 44 6.6 WSW 9 15 5 8 1018.3 1018.2 0.0
24/06:30pm 21.3 18.7 7.9 42 7.1 WSW 11 19 6 10 1018.0 1017.9 0.0
24/06:00pm 22.8 19.4 6.1 34 8.6 W 13 19 7 10 1017.7 1017.6 0.0
24/05:30pm 24.0 19.7 5.4 30 9.5 WNW 17 26 9 14 1017.3 1017.2 0.0
24/05:00pm 24.8 19.8 3.5 25 10.6 WNW 19 24 10 13 1017.0 1016.9 0.0
24/04:30pm 25.3 20.1 3.3 24 10.9 WNW 20 30 11 16 1016.7 1016.7 0.0
24/04:00pm 25.5 19.9 3.5 24 11.0 WNW 22 33 12 18 1016.5 1016.4 0.0
24/03:30pm 26.4 20.7 4.8 25 11.1 NW 24 33 13 18 1016.4 1016.3 0.0
24/03:00pm 26.7 20.8 3.9 23 11.5 NW 24 37 13 20 1016.3 1016.2 0.0
24/02:30pm 26.2 20.7 5.7 27 10.7 NW 24 37 13 20 1016.5 1016.4 0.0
24/02:00pm 27.5 22.2 6.8 27 11.1 NW 24 33 13 18 1016.6 1016.5 0.0
24/01:30pm 26.3 20.9 6.4 28 10.5 NW 24 37 13 20 1016.9 1016.8 0.0
24/01:00pm 26.3 21.0 6.9 29 10.3 NNW 24 35 13 19 1017.3 1017.2 0.0
24/12:30pm 26.3 21.9 7.4 30 10.2 NW 20 32 11 17 1017.6 1017.5 0.0
24/12:00pm 25.7 21.3 7.3 31 9.8 NNW 20 32 11 17 1018.0 1017.9 0.0
24/11:30am 25.1 20.8 7.7 33 9.3 NNW 20 32 11 17 1018.4 1018.3 0.0
24/11:00am 24.8 20.8 8.3 35 8.9 NNW 19 28 10 15 1018.6 1018.5 0.0
24/10:30am 24.0 20.3 8.0 36 8.6 NNW 17 28 9 15 1018.9 1018.8 0.0
24/10:00am 21.6 19.2 10.1 48 6.3 NNW 13 20 7 11 1019.3 1019.2 0.0
24/09:30am 18.4 17.2 11.7 65 3.7 NNW 9 15 5 8 1019.5 1019.4 0.0
24/09:00am 16.4 15.2 11.6 73 2.6 WNW 9 15 5 8 1019.7 1019.7 0.0
24/08:30am 15.2 14.6 12.3 83 1.6 W 7 11 4 6 1019.7 1019.7 0.0
24/08:00am 14.0 14.5 12.9 93 0.6 WSW 2 6 1 3 1019.6 1019.5 0.0
24/07:30am 12.7 13.0 12.1 96 0.3 SW 2 7 1 4 1019.6 1019.5 0.0
24/07:00am 11.7 11.7 11.2 97 0.3 NNE 2 6 1 3 1019.5 1019.4 0.0
24/06:30am 11.2 10.3 10.7 97 0.3 ENE 6 9 3 5 1019.4 1019.3 0.0
24/06:00am 11.5 11.4 10.9 96 0.3 E 2 7 1 4 1019.4 1019.3 0.0
24/05:30am 11.6 11.9 11.0 96 0.3 CALM 0 0 0 0 1019.4 1019.3 0.0
24/05:00am 11.8 11.0 11.2 96 0.3 NW 6 11 3 6 1019.5 1019.4 0.0
24/04:30am 11.8 10.0 11.0 95 0.4 NNW 11 19 6 10 1019.7 1019.7 0.0
24/04:00am 11.8 11.0 11.0 95 0.4 NNE 6 9 3 5 1019.3 1019.2 0.0
24/03:30am 11.9 11.1 11.0 94 0.5 NE 6 7 3 4 1019.2 1019.1 0.0
24/03:00am 12.0 11.2 10.9 93 0.6 E 6 9 3 5 1019.3 1019.2 0.0
24/02:30am 12.2 11.2 11.1 93 0.6 ESE 7 11 4 6 1019.3 1019.2 0.0
24/02:00am 12.4 11.1 11.1 92 0.7 ESE 9 13 5 7 1019.6 1019.5 0.0
24/01:30am 12.8 11.5 11.4 91 0.8 ESE 9 13 5 7 1019.8 1019.8 0.0
24/01:00am 13.0 11.8 11.6 91 0.8 ESE 9 13 5 7 1019.9 1019.9 0.0
24/12:30am 13.2 11.7 11.8 91 0.8 ESE 11 22 6 12 1020.0 1020.0 0.0
24/12:00am 13.3 11.7 11.7 90 0.9 ESE 11 19 6 10 1020.6 1020.5 0.0
 
Date/Time
WST
Temp
°C
App
Temp
°C
Dew
Point
°C
Rel
Hum
%
Delta-T
°C
Wind Press
QNH
hPa
Press
MSL
hPa
Rain since
9am
mm
Dir  Spd
km/h
Gust
km/h
Spd
kts
Gust
kts
23/11:30pm 13.9 12.0 11.8 87 1.1 ESE 13 24 7 13 1020.7 1020.6 0.0
23/11:00pm 14.7 12.9 12.0 84 1.5 SE 13 20 7 11 1020.7 1020.6 0.0
23/10:30pm 15.4 13.6 12.2 81 1.8 SE 13 22 7 12 1020.8 1020.7 0.0
23/10:00pm 16.3 14.0 11.9 75 2.4 ESE 15 24 8 13 1020.8 1020.7 0.0
23/09:30pm 17.2 15.2 11.5 69 3.1 ESE 13 22 7 12 1020.9 1020.8 0.0
23/09:00pm 18.4 15.2 10.0 58 4.5 ESE 17 24 9 13 1020.8 1020.7 0.0

Other Formats:

Comma delimited format used in spreadsheet applications
http://www.bom.gov.au/fwo/IDW60801/IDW60801.95637.axf

JavaScript Object Notation format (JSON) in row-major order
http://www.bom.gov.au/fwo/IDW60801/IDW60801.95637.json